createdAt,value
2019-01-27T00:00:57.373Z,93.14
2019-01-27T00:03:26.949Z,92.90
2019-01-27T00:05:56.515Z,94.01
2019-01-27T00:08:25.910Z,93.30
2019-01-27T00:10:55.342Z,93.03
2019-01-27T00:13:24.847Z,92.96
2019-01-27T00:15:54.355Z,93.57
2019-01-27T00:18:23.824Z,93.04
2019-01-27T00:20:53.200Z,92.92
2019-01-27T00:23:22.740Z,93.52
2019-01-27T00:25:52.371Z,93.41
2019-01-27T00:28:21.766Z,93.43
2019-01-27T00:30:51.287Z,94.20
2019-01-27T00:33:20.869Z,93.79
2019-01-27T00:35:50.278Z,93.98
2019-01-27T00:38:19.768Z,94.22
2019-01-27T00:40:49.528Z,94.16
2019-01-27T00:43:18.971Z,93.89
2019-01-27T00:45:48.374Z,93.27
2019-01-27T00:48:18.455Z,93.96
2019-01-27T00:50:47.958Z,94.51
2019-01-27T00:53:17.380Z,93.90
2019-01-27T00:55:46.836Z,93.56
2019-01-27T00:58:16.441Z,94.26
2019-01-27T01:00:45.982Z,94.13
2019-01-27T01:03:15.988Z,94.07
2019-01-27T01:05:45.503Z,94.45
2019-01-27T01:08:16.575Z,94.43
2019-01-27T01:10:46.023Z,94.59
2019-01-27T01:13:15.618Z,95.11
2019-01-27T01:15:45.265Z,93.44
2019-01-27T01:18:14.698Z,93.05
2019-01-27T01:20:44.091Z,92.86
2019-01-27T01:23:13.601Z,92.60
2019-01-27T01:25:43.293Z,92.54
2019-01-27T01:28:12.850Z,92.65
2019-01-27T01:30:43.289Z,93.06
2019-01-27T01:33:12.851Z,92.75
2019-01-27T01:35:42.366Z,93.70
2019-01-27T01:38:11.875Z,92.97
2019-01-27T01:40:41.334Z,92.69
2019-01-27T01:43:10.818Z,92.28
2019-01-27T01:45:40.348Z,92.41
2019-01-27T01:48:10.070Z,91.97
2019-01-27T01:50:39.469Z,92.00
2019-01-27T01:53:09.064Z,91.35
2019-01-27T01:55:38.633Z,92.37
2019-01-27T01:58:08.247Z,91.96
2019-01-27T02:00:37.644Z,92.68
2019-01-27T02:03:07.280Z,92.91
2019-01-27T02:05:36.772Z,92.87
2019-01-27T02:08:06.401Z,93.13
2019-01-27T02:10:35.827Z,92.36
2019-01-27T02:13:05.839Z,92.49
2019-01-27T02:16:01.627Z,91.48
2019-01-27T02:18:31.280Z,91.21
2019-01-27T02:21:00.678Z,91.68
2019-01-27T02:23:30.221Z,91.85
2019-01-27T02:25:59.857Z,91.85
2019-01-27T02:28:29.272Z,92.49
2019-01-27T02:30:58.897Z,92.73
2019-01-27T02:33:30.641Z,92.77
2019-01-27T02:36:00.054Z,93.04
2019-01-27T02:38:29.616Z,93.17
2019-01-27T02:40:59.111Z,93.79
2019-01-27T02:43:28.523Z,93.55
2019-01-27T02:45:57.996Z,93.76
2019-01-27T02:48:27.506Z,94.05
2019-01-27T02:50:57.019Z,94.23
2019-01-27T02:53:26.472Z,94.97
2019-01-27T02:55:55.906Z,95.42
2019-01-27T02:58:25.406Z,95.33
2019-01-27T03:00:54.960Z,95.03
2019-01-27T03:03:24.469Z,95.25
2019-01-27T03:06:16.064Z,95.42
2019-01-27T03:09:10.255Z,95.27
2019-01-27T03:11:49.186Z,96.05
2019-01-27T03:14:20.777Z,96.45
2019-01-27T03:16:51.755Z,96.20
2019-01-27T03:19:21.251Z,95.68
2019-01-27T03:21:50.774Z,95.08
2019-01-27T03:24:20.377Z,95.01
2019-01-27T03:26:49.869Z,95.46
2019-01-27T03:29:19.352Z,95.51
2019-01-27T03:31:50.331Z,95.47
2019-01-27T03:34:20.086Z,94.65
2019-01-27T03:36:49.552Z,93.92
2019-01-27T03:39:19.159Z,94.06
2019-01-27T03:41:48.560Z,93.52
2019-01-27T03:44:18.066Z,92.57
2019-01-27T03:46:47.600Z,91.81
2019-01-27T03:49:16.981Z,91.65
2019-01-27T03:51:46.487Z,92.28
2019-01-27T03:54:15.921Z,92.83
2019-01-27T03:56:45.315Z,92.69
2019-01-27T03:59:14.945Z,93.85
2019-01-27T04:01:44.487Z,94.63
2019-01-27T04:04:13.890Z,95.84
2019-01-27T04:06:43.294Z,96.56
2019-01-27T04:09:14.358Z,96.68
2019-01-27T04:11:43.903Z,97.31
2019-01-27T04:14:13.304Z,97.04
2019-01-27T04:16:42.739Z,97.42
2019-01-27T04:19:12.233Z,96.43
2019-01-27T04:21:41.711Z,96.04
2019-01-27T04:24:11.335Z,96.67
2019-01-27T04:26:40.763Z,96.13
2019-01-27T04:29:10.269Z,96.28
2019-01-27T04:31:39.716Z,95.84
2019-01-27T04:34:09.239Z,96.02
2019-01-27T04:36:38.755Z,96.24
2019-01-27T04:39:11.084Z,96.80
2019-01-27T04:41:40.614Z,97.00
2019-01-27T04:44:10.139Z,97.15
2019-01-27T04:46:39.720Z,97.32
2019-01-27T04:49:09.135Z,97.35
2019-01-27T04:51:38.526Z,97.33
2019-01-27T04:54:08.097Z,96.93
2019-01-27T04:56:37.604Z,96.55
2019-01-27T04:59:07.106Z,96.75
2019-01-27T05:01:36.721Z,96.52
2019-01-27T05:04:25.259Z,96.23
2019-01-27T05:06:54.903Z,96.16
2019-01-27T05:09:24.310Z,95.77
2019-01-27T05:11:53.841Z,95.93
2019-01-27T05:14:23.575Z,95.90
2019-01-27T05:16:52.982Z,95.75
2019-01-27T05:19:22.477Z,95.70
2019-01-27T05:21:52.022Z,96.08
2019-01-27T05:24:21.428Z,96.59
2019-01-27T05:26:50.857Z,97.05
2019-01-27T05:29:20.388Z,97.81
2019-01-27T05:31:49.937Z,97.94
2019-01-27T05:34:19.356Z,98.07
2019-01-27T05:36:48.807Z,98.15
2019-01-27T05:39:18.296Z,97.69
2019-01-27T05:41:47.803Z,97.42
2019-01-27T05:44:17.267Z,97.60
2019-01-27T05:46:46.705Z,97.41
2019-01-27T05:49:16.207Z,96.98
2019-01-27T05:51:45.657Z,96.53
2019-01-27T05:54:15.162Z,96.07
2019-01-27T05:56:44.675Z,95.18
2019-01-27T05:59:14.270Z,95.11
2019-01-27T06:01:43.679Z,94.70
2019-01-27T06:04:13.178Z,95.00
2019-01-27T06:06:42.707Z,94.37
2019-01-27T06:09:12.106Z,93.80
2019-01-27T06:11:41.511Z,92.80
2019-01-27T06:14:11.192Z,92.32
2019-01-27T06:16:40.691Z,91.58
2019-01-27T06:19:10.191Z,90.93
2019-01-27T06:21:39.629Z,91.24
2019-01-27T06:24:09.135Z,90.81
2019-01-27T06:26:38.622Z,90.78
2019-01-27T06:29:08.067Z,90.36
2019-01-27T06:31:37.667Z,89.51
2019-01-27T06:34:10.497Z,89.56
2019-01-27T06:36:40.040Z,88.98
2019-01-27T06:39:10.558Z,87.08
2019-01-27T06:41:40.038Z,87.01
2019-01-27T06:44:09.486Z,86.97
2019-01-27T06:46:38.932Z,87.04
2019-01-27T06:49:08.460Z,85.97
2019-01-27T06:51:38.035Z,85.30
2019-01-27T06:54:07.545Z,84.22
2019-01-27T06:56:36.928Z,83.45
2019-01-27T06:59:24.102Z,83.35
2019-01-27T07:02:15.510Z,82.97
2019-01-27T07:05:10.076Z,82.14
2019-01-27T07:07:55.721Z,80.69
2019-01-27T07:10:42.515Z,80.30
2019-01-27T07:13:29.511Z,79.96
2019-01-27T07:16:26.765Z,79.67
2019-01-27T07:19:15.336Z,78.52
2019-01-27T07:22:06.692Z,79.47
2019-01-27T07:25:07.247Z,78.77
2019-01-27T07:27:47.800Z,77.42
2019-01-27T07:30:51.300Z,76.36
2019-01-27T07:33:54.950Z,76.08
2019-01-27T07:36:37.350Z,73.51
2019-01-27T07:39:31.160Z,72.06
2019-01-27T07:42:16.641Z,71.38
2019-01-27T07:45:00.589Z,70.90
2019-01-27T07:48:03.977Z,71.38
2019-01-27T07:51:07.613Z,71.23
2019-01-27T07:53:55.940Z,70.82
2019-01-27T07:56:43.703Z,69.19
2019-01-27T07:59:34.683Z,69.08
2019-01-27T08:02:23.241Z,68.72
2019-01-27T08:05:26.679Z,67.70
2019-01-27T08:08:11.415Z,65.28
2019-01-27T08:11:05.772Z,65.36
2019-01-27T08:13:41.067Z,64.76
2019-01-27T08:16:29.455Z,63.74
2019-01-27T08:19:24.970Z,63.97
2019-01-27T08:22:16.225Z,61.95
2019-01-27T08:25:10.725Z,61.79
2019-01-27T08:27:59.125Z,62.24
2019-01-27T08:30:44.515Z,61.85
2019-01-27T08:33:32.138Z,61.30
2019-01-27T08:36:23.381Z,62.36
2019-01-27T08:39:10.571Z,62.81
2019-01-27T08:42:17.245Z,62.36
2019-01-27T08:45:04.415Z,63.08
2019-01-27T08:47:34.080Z,63.88
2019-01-27T08:50:03.555Z,64.51
2019-01-27T08:52:33.038Z,63.60
2019-01-27T08:55:02.601Z,65.05
2019-01-27T08:57:31.979Z,66.92
2019-01-27T09:00:01.382Z,66.61
2019-01-27T09:02:44.332Z,65.89
2019-01-27T09:05:25.063Z,66.34
2019-01-27T09:08:05.687Z,66.96
2019-01-27T09:10:44.474Z,67.10
2019-01-27T09:13:24.493Z,66.93
2019-01-27T09:16:18.878Z,67.22
2019-01-27T09:19:13.864Z,66.42
2019-01-27T09:22:14.158Z,66.10
2019-01-27T09:25:00.523Z,65.56
2019-01-27T09:27:38.042Z,65.00
2019-01-27T09:30:17.932Z,65.86
2019-01-27T09:33:02.598Z,65.29
2019-01-27T09:36:06.127Z,65.25
2019-01-27T09:38:44.983Z,65.71
2019-01-27T09:41:42.386Z,65.45
2019-01-27T09:44:36.754Z,65.38
2019-01-27T09:47:15.925Z,64.75
2019-01-27T09:50:03.580Z,66.36
2019-01-27T09:52:55.059Z,65.41
2019-01-27T09:55:42.056Z,64.98
2019-01-27T09:58:23.942Z,65.56
2019-01-27T10:01:05.191Z,65.23
2019-01-27T10:04:02.890Z,64.96
2019-01-27T10:06:51.286Z,64.85
2019-01-27T10:09:36.632Z,62.57
2019-01-27T10:12:28.068Z,62.67
2019-01-27T10:15:14.833Z,63.87
2019-01-27T10:18:01.762Z,63.57
2019-01-27T10:20:52.988Z,63.15
2019-01-27T10:23:42.029Z,63.13
2019-01-27T10:26:24.741Z,63.95
2019-01-27T10:29:11.775Z,62.51
2019-01-27T10:31:54.372Z,62.72
2019-01-27T10:34:35.756Z,63.53
2019-01-27T10:37:27.881Z,63.81
2019-01-27T10:40:09.324Z,64.48
2019-01-27T10:42:43.232Z,65.32
2019-01-27T10:45:22.419Z,66.10
2019-01-27T10:48:26.826Z,66.46
2019-01-27T10:51:15.189Z,66.09
2019-01-27T10:54:09.657Z,66.33
2019-01-27T10:56:47.481Z,66.04
2019-01-27T10:59:25.515Z,66.54
2019-01-27T11:02:12.420Z,66.56
2019-01-27T11:05:06.769Z,66.22
2019-01-27T11:08:04.213Z,66.06
2019-01-27T11:11:07.771Z,66.56
2019-01-27T11:14:02.014Z,66.97
2019-01-27T11:17:08.828Z,66.64
2019-01-27T11:19:44.051Z,67.38
2019-01-27T11:22:38.429Z,66.44
2019-01-27T11:25:27.062Z,66.42
2019-01-27T11:28:12.915Z,65.60
2019-01-27T11:30:49.751Z,65.81
2019-01-27T11:33:28.216Z,65.44
2019-01-27T11:36:16.177Z,66.37
2019-01-27T11:39:02.873Z,66.31
2019-01-27T11:42:09.683Z,66.84
2019-01-27T11:44:52.830Z,65.96
2019-01-27T11:47:52.923Z,66.51
2019-01-27T11:50:42.534Z,66.87
2019-01-27T11:53:12.012Z,67.32
2019-01-27T11:55:41.488Z,67.74
2019-01-27T11:58:10.912Z,67.81
2019-01-27T12:00:42.378Z,67.36
2019-01-27T12:03:11.847Z,67.65
2019-01-27T12:05:41.266Z,66.96
2019-01-27T12:08:10.685Z,67.66
2019-01-27T12:10:40.258Z,66.71
2019-01-27T12:13:09.763Z,66.65
2019-01-27T12:15:39.170Z,66.28
2019-01-27T12:18:08.641Z,66.87
2019-01-27T12:20:38.338Z,66.06
2019-01-27T12:23:07.710Z,66.05
2019-01-27T12:25:37.229Z,66.33
2019-01-27T12:28:06.758Z,66.03
2019-01-27T12:30:36.128Z,65.97
2019-01-27T12:33:05.499Z,66.45
2019-01-27T12:35:35.106Z,66.21
2019-01-27T12:38:05.210Z,65.45
2019-01-27T12:40:34.642Z,65.30
2019-01-27T12:43:04.466Z,65.97
2019-01-27T12:45:34.049Z,64.87
2019-01-27T12:48:03.555Z,65.86
2019-01-27T12:50:33.002Z,66.97
2019-01-27T12:53:02.371Z,65.52
2019-01-27T12:55:31.946Z,65.94
2019-01-27T12:58:01.520Z,66.25
2019-01-27T13:00:34.026Z,64.97
2019-01-27T13:03:03.442Z,65.30
2019-01-27T13:05:33.174Z,65.73
2019-01-27T13:08:02.656Z,66.06
2019-01-27T13:10:32.154Z,66.69
2019-01-27T13:13:01.697Z,66.77
2019-01-27T13:15:31.286Z,66.76
2019-01-27T13:18:00.809Z,66.98
2019-01-27T13:20:30.238Z,66.83
2019-01-27T13:22:59.613Z,66.90
2019-01-27T13:25:29.106Z,66.47
2019-01-27T13:27:58.860Z,66.81
2019-01-27T13:30:28.252Z,67.15
2019-01-27T13:32:57.644Z,66.52
2019-01-27T13:35:27.173Z,67.60
2019-01-27T13:37:56.688Z,67.95
2019-01-27T13:40:26.547Z,67.44
2019-01-27T13:42:56.365Z,66.61
2019-01-27T13:45:29.346Z,66.75
2019-01-27T13:47:59.301Z,67.65
2019-01-27T13:50:28.928Z,67.47
2019-01-27T13:52:58.618Z,66.85
2019-01-27T13:55:29.919Z,66.76
2019-01-27T13:57:59.478Z,67.38
2019-01-27T14:00:31.330Z,66.77
2019-01-27T14:03:00.929Z,67.90
2019-01-27T14:05:30.369Z,68.43
2019-01-27T14:07:59.757Z,68.38
2019-01-27T14:10:29.886Z,68.63
2019-01-27T14:12:59.626Z,68.24
2019-01-27T14:15:33.645Z,68.36
2019-01-27T14:18:03.077Z,68.75
2019-01-27T14:20:32.662Z,69.45
2019-01-27T14:23:02.063Z,68.64
2019-01-27T14:25:31.883Z,69.21
2019-01-27T14:30:32.049Z,70.94
2019-01-27T14:33:01.424Z,69.98
2019-01-27T14:35:30.812Z,68.97
2019-01-27T14:38:00.329Z,69.11
2019-01-27T14:40:30.408Z,69.16
2019-01-27T14:43:00.927Z,68.78
2019-01-27T14:45:30.917Z,69.73
2019-01-27T14:48:00.758Z,69.61
2019-01-27T14:50:32.413Z,70.86
2019-01-27T14:53:01.904Z,72.33
2019-01-27T14:55:31.718Z,71.40
2019-01-27T14:58:01.203Z,71.25
2019-01-27T15:00:36.335Z,71.54
2019-01-27T15:03:04.439Z,72.42
2019-01-27T15:05:33.959Z,73.06
2019-01-27T15:08:03.583Z,73.78
2019-01-27T15:10:33.049Z,74.50
2019-01-27T15:13:02.533Z,74.30
2019-01-27T15:15:32.045Z,75.03
2019-01-27T15:18:01.416Z,75.86
2019-01-27T15:20:36.207Z,76.18
2019-01-27T15:23:05.802Z,76.12
2019-01-27T15:25:35.320Z,77.29
2019-01-27T15:28:05.132Z,77.37
2019-01-27T15:30:35.092Z,78.23
2019-01-27T15:33:06.599Z,78.92
2019-01-27T15:35:36.121Z,79.82
2019-01-27T15:38:05.735Z,80.73
2019-01-27T15:40:35.126Z,81.91
2019-01-27T15:43:04.920Z,82.42
2019-01-27T15:45:34.487Z,82.68
2019-01-27T15:48:03.890Z,82.86
2019-01-27T15:50:33.988Z,84.00
2019-01-27T15:53:03.392Z,85.26
2019-01-27T15:55:32.768Z,86.08
2019-01-27T15:58:02.292Z,87.04
2019-01-27T16:00:32.191Z,86.57
2019-01-27T16:03:01.598Z,86.82
2019-01-27T16:05:31.337Z,87.38
2019-01-27T16:08:00.825Z,87.38
2019-01-27T16:10:30.417Z,87.50
2019-01-27T16:13:00.003Z,87.79
2019-01-27T16:15:30.925Z,88.05
2019-01-27T16:18:00.407Z,88.57
2019-01-27T16:20:30.115Z,88.96
2019-01-27T16:23:13.267Z,89.02
2019-01-27T16:25:42.862Z,89.75
2019-01-27T16:28:12.440Z,90.21
2019-01-27T16:31:04.162Z,90.61
2019-01-27T16:33:39.032Z,90.42
2019-01-27T16:36:08.595Z,90.48
2019-01-27T16:38:38.002Z,91.35
2019-01-27T16:41:07.707Z,92.38
2019-01-27T16:43:37.292Z,92.44
2019-01-27T16:46:06.897Z,92.77
2019-01-27T16:48:36.307Z,93.19
2019-01-27T16:51:11.443Z,93.35
2019-01-27T16:53:55.804Z,93.74
2019-01-27T16:56:25.331Z,92.82
2019-01-27T16:58:54.733Z,91.79
2019-01-27T17:01:24.418Z,91.68
2019-01-27T17:03:54.042Z,92.08
2019-01-27T17:06:23.524Z,91.81
2019-01-27T17:08:52.934Z,91.77
2019-01-27T17:11:22.397Z,91.62
2019-01-27T17:13:51.890Z,91.92
2019-01-27T17:16:21.498Z,92.98
2019-01-27T17:18:52.893Z,93.64
2019-01-27T17:21:22.409Z,93.50
2019-01-27T17:23:51.907Z,94.02
2019-01-27T17:26:21.429Z,94.72
2019-01-27T17:28:50.823Z,95.66
2019-01-27T17:31:20.304Z,96.36
2019-01-27T17:33:49.939Z,96.15
2019-01-27T17:36:19.566Z,96.33
2019-01-27T17:38:49.041Z,96.79
2019-01-27T17:41:18.519Z,98.03
2019-01-27T17:43:48.012Z,98.98
2019-01-27T17:46:17.708Z,99.19
2019-01-27T17:48:47.331Z,99.83
2019-01-27T17:51:16.854Z,100.00
2019-01-27T17:53:52.720Z,100.00
2019-01-27T17:56:22.877Z,100.00
2019-01-27T17:59:00.712Z,100.00
2019-01-27T18:01:58.299Z,100.00
2019-01-27T18:04:52.833Z,100.00
2019-01-27T18:07:46.973Z,100.00
2019-01-27T18:10:31.462Z,100.00
2019-01-27T18:13:18.395Z,100.00
2019-01-27T18:15:47.856Z,100.00
2019-01-27T18:18:17.258Z,100.00
2019-01-27T18:20:46.856Z,100.00
2019-01-27T18:23:16.375Z,100.00
2019-01-27T18:25:45.774Z,100.00
2019-01-27T18:28:15.224Z,100.00
2019-01-27T18:30:45.119Z,100.00
2019-01-27T18:33:14.529Z,100.00
2019-01-27T18:35:44.141Z,100.00
2019-01-27T18:38:13.709Z,100.00
2019-01-27T18:40:43.126Z,100.00
2019-01-27T18:43:12.540Z,100.00
2019-01-27T18:45:42.077Z,100.00
2019-01-27T18:48:12.186Z,100.00
2019-01-27T18:50:41.675Z,100.00
2019-01-27T18:53:18.715Z,100.00
2019-01-27T18:56:04.415Z,100.00
2019-01-27T18:58:51.709Z,100.00
2019-01-27T19:01:30.491Z,100.00
2019-01-27T19:04:12.108Z,100.00
2019-01-27T19:07:12.519Z,100.00
2019-01-27T19:09:52.450Z,100.00
2019-01-27T19:12:49.937Z,100.00
2019-01-27T19:15:47.800Z,100.00
2019-01-27T19:18:35.063Z,100.00
2019-01-27T19:21:32.399Z,100.00
2019-01-27T19:24:27.792Z,100.00
2019-01-27T19:27:16.258Z,100.00
2019-01-27T19:29:54.298Z,100.00
2019-01-27T19:32:49.899Z,100.00
2019-01-27T19:35:37.026Z,100.00
2019-01-27T19:38:25.481Z,100.00
2019-01-27T19:41:28.702Z,100.00
2019-01-27T19:44:20.017Z,100.00
2019-01-27T19:47:26.190Z,100.00
2019-01-27T19:50:17.730Z,100.00
2019-01-27T19:53:05.508Z,100.00
2019-01-27T19:55:52.100Z,100.00
2019-01-27T19:58:35.073Z,100.00
2019-01-27T20:01:15.833Z,100.00
2019-01-27T20:04:09.249Z,100.00
2019-01-27T20:06:58.997Z,100.00
2019-01-27T20:09:56.098Z,100.00
2019-01-27T20:12:42.773Z,100.00
2019-01-27T20:15:26.906Z,100.00
2019-01-27T20:18:06.687Z,100.00
2019-01-27T20:20:58.046Z,100.00
2019-01-27T20:23:36.936Z,100.00
2019-01-27T20:26:30.048Z,100.00
2019-01-27T20:29:21.536Z,100.00
2019-01-27T20:32:09.850Z,100.00
2019-01-27T20:35:16.885Z,100.00
2019-01-27T20:37:57.728Z,100.00
2019-01-27T20:40:45.992Z,100.00
2019-01-27T20:43:28.655Z,100.00
2019-01-27T20:46:23.055Z,100.00
2019-01-27T20:49:14.378Z,100.00
2019-01-27T20:51:54.069Z,100.00
2019-01-27T20:54:51.388Z,100.00
2019-01-27T20:57:31.197Z,100.00
2019-01-27T21:00:19.528Z,100.00
2019-01-27T21:03:13.841Z,100.00
2019-01-27T21:05:58.445Z,100.00
2019-01-27T21:08:52.750Z,100.00
2019-01-27T21:11:46.843Z,100.00
2019-01-27T21:14:38.311Z,100.00
2019-01-27T21:17:16.402Z,100.00
2019-01-27T21:19:59.515Z,100.00
2019-01-27T21:22:28.909Z,100.00
2019-01-27T21:24:58.304Z,100.00
2019-01-27T21:27:27.833Z,100.00
2019-01-27T21:29:57.239Z,100.00
2019-01-27T21:32:26.805Z,100.00
2019-01-27T21:34:56.644Z,100.00
2019-01-27T21:37:26.063Z,100.00
2019-01-27T21:39:55.461Z,100.00
2019-01-27T21:42:25.215Z,100.00
2019-01-27T21:44:54.676Z,100.00
2019-01-27T21:47:24.074Z,100.00
2019-01-27T21:49:53.710Z,100.00
2019-01-27T21:52:23.193Z,100.00
2019-01-27T21:54:52.714Z,100.00
2019-01-27T21:57:22.288Z,100.00
2019-01-27T21:59:51.793Z,100.00
2019-01-27T22:02:21.403Z,100.00
2019-01-27T22:04:50.931Z,100.00
2019-01-27T22:07:20.328Z,100.00
2019-01-27T22:09:49.814Z,100.00
2019-01-27T22:12:19.232Z,100.00
2019-01-27T22:14:48.641Z,100.00
2019-01-27T22:17:18.156Z,100.00
2019-01-27T22:19:47.667Z,100.00
2019-01-27T22:22:17.062Z,100.00
2019-01-27T22:24:46.446Z,100.00
2019-01-27T22:27:15.982Z,100.00
2019-01-27T22:29:45.457Z,100.00
2019-01-27T22:32:14.954Z,100.00
2019-01-27T22:34:44.405Z,100.00
2019-01-27T22:37:15.167Z,100.00
2019-01-27T22:39:44.725Z,100.00
2019-01-27T22:42:14.344Z,100.00
2019-01-27T22:44:43.751Z,100.00
2019-01-27T22:47:13.230Z,100.00
2019-01-27T22:49:42.854Z,100.00
2019-01-27T22:52:12.242Z,100.00
2019-01-27T22:54:41.653Z,100.00
2019-01-27T22:57:11.271Z,100.00
2019-01-27T22:59:40.752Z,100.00
2019-01-27T23:02:10.282Z,100.00
2019-01-27T23:04:39.739Z,100.00
2019-01-27T23:07:09.222Z,100.00
2019-01-27T23:09:38.700Z,100.00
2019-01-27T23:12:08.154Z,100.00
2019-01-27T23:14:37.556Z,100.00
2019-01-27T23:17:07.061Z,100.00
2019-01-27T23:19:36.587Z,100.00
2019-01-27T23:22:05.983Z,100.00
2019-01-27T23:24:35.388Z,100.00
2019-01-27T23:27:05.228Z,100.00
2019-01-27T23:29:34.611Z,100.00
2019-01-27T23:32:04.105Z,100.00
2019-01-27T23:34:33.655Z,100.00
2019-01-27T23:37:03.047Z,100.00
2019-01-27T23:39:33.628Z,100.00
2019-01-27T23:42:03.171Z,100.00
2019-01-27T23:44:32.753Z,100.00
2019-01-27T23:47:02.126Z,100.00
2019-01-27T23:49:31.564Z,100.00
2019-01-27T23:52:01.071Z,100.00
2019-01-27T23:54:30.558Z,100.00
2019-01-27T23:57:00.234Z,100.00
2019-01-27T23:59:29.642Z,100.00
